sensor_id;sensor_type;location;lat;lon;timestamp;P1;durP1;ratioP1;P2;durP2;ratioP2
15317;SDS011;7759;52.528;13.346;2023-04-15T00:00:36;10.47;;;7.30;;
15317;SDS011;7759;52.528;13.346;2023-04-15T00:03:02;10.10;;;7.50;;
15317;SDS011;7759;52.528;13.346;2023-04-15T00:05:29;11.20;;;7.27;;
15317;SDS011;7759;52.528;13.346;2023-04-15T00:07:55;11.30;;;7.03;;
15317;SDS011;7759;52.528;13.346;2023-04-15T00:10:22;15.53;;;8.40;;
15317;SDS011;7759;52.528;13.346;2023-04-15T00:12:48;14.57;;;8.87;;
15317;SDS011;7759;52.528;13.346;2023-04-15T00:15:14;12.77;;;7.70;;
15317;SDS011;7759;52.528;13.346;2023-04-15T00:17:41;9.17;;;6.60;;
15317;SDS011;7759;52.528;13.346;2023-04-15T00:20:07;13.90;;;7.93;;
15317;SDS011;7759;52.528;13.346;2023-04-15T00:22:33;10.60;;;7.37;;
15317;SDS011;7759;52.528;13.346;2023-04-15T00:24:59;16.37;;;9.63;;
15317;SDS011;7759;52.528;13.346;2023-04-15T00:27:25;10.80;;;7.37;;
15317;SDS011;7759;52.528;13.346;2023-04-15T00:29:51;11.80;;;8.00;;
15317;SDS011;7759;52.528;13.346;2023-04-15T00:32:17;14.17;;;8.83;;
15317;SDS011;7759;52.528;13.346;2023-04-15T00:34:44;11.63;;;7.97;;
15317;SDS011;7759;52.528;13.346;2023-04-15T00:37:10;11.80;;;7.60;;
15317;SDS011;7759;52.528;13.346;2023-04-15T00:39:36;12.23;;;8.70;;
15317;SDS011;7759;52.528;13.346;2023-04-15T00:42:05;14.50;;;8.50;;
15317;SDS011;7759;52.528;13.346;2023-04-15T00:44:31;10.57;;;7.57;;
15317;SDS011;7759;52.528;13.346;2023-04-15T00:46:58;11.87;;;8.23;;
15317;SDS011;7759;52.528;13.346;2023-04-15T00:49:24;12.40;;;8.53;;
15317;SDS011;7759;52.528;13.346;2023-04-15T00:51:52;10.57;;;7.53;;
15317;SDS011;7759;52.528;13.346;2023-04-15T00:54:18;15.13;;;8.57;;
15317;SDS011;7759;52.528;13.346;2023-04-15T00:56:45;16.47;;;9.60;;
15317;SDS011;7759;52.528;13.346;2023-04-15T00:59:11;13.33;;;8.63;;
15317;SDS011;7759;52.528;13.346;2023-04-15T01:01:37;14.80;;;9.67;;
15317;SDS011;7759;52.528;13.346;2023-04-15T01:04:03;13.87;;;8.43;;
15317;SDS011;7759;52.528;13.346;2023-04-15T01:06:30;17.50;;;10.70;;
15317;SDS011;7759;52.528;13.346;2023-04-15T01:08:59;14.97;;;9.60;;
15317;SDS011;7759;52.528;13.346;2023-04-15T01:11:25;13.20;;;9.27;;
15317;SDS011;7759;52.528;13.346;2023-04-15T01:13:51;14.73;;;8.97;;
15317;SDS011;7759;52.528;13.346;2023-04-15T01:16:20;16.67;;;9.93;;
15317;SDS011;7759;52.528;13.346;2023-04-15T01:18:46;17.63;;;10.50;;
15317;SDS011;7759;52.528;13.346;2023-04-15T01:21:13;15.57;;;9.33;;
15317;SDS011;7759;52.528;13.346;2023-04-15T01:23:38;18.00;;;9.97;;
15317;SDS011;7759;52.528;13.346;2023-04-15T01:26:05;12.87;;;8.27;;
15317;SDS011;7759;52.528;13.346;2023-04-15T01:28:32;12.53;;;8.07;;
15317;SDS011;7759;52.528;13.346;2023-04-15T01:31:05;16.37;;;10.73;;
15317;SDS011;7759;52.528;13.346;2023-04-15T01:33:31;14.20;;;8.90;;
15317;SDS011;7759;52.528;13.346;2023-04-15T01:35:57;12.57;;;8.10;;
15317;SDS011;7759;52.528;13.346;2023-04-15T01:38:25;16.17;;;9.83;;
15317;SDS011;7759;52.528;13.346;2023-04-15T01:40:51;16.60;;;9.47;;
15317;SDS011;7759;52.528;13.346;2023-04-15T01:43:17;13.10;;;8.57;;
15317;SDS011;7759;52.528;13.346;2023-04-15T01:45:44;17.80;;;9.93;;
15317;SDS011;7759;52.528;13.346;2023-04-15T01:48:10;15.03;;;8.70;;
15317;SDS011;7759;52.528;13.346;2023-04-15T01:50:37;15.70;;;9.57;;
15317;SDS011;7759;52.528;13.346;2023-04-15T01:53:03;21.27;;;12.13;;
15317;SDS011;7759;52.528;13.346;2023-04-15T01:55:29;15.43;;;9.03;;
15317;SDS011;7759;52.528;13.346;2023-04-15T01:57:55;15.30;;;8.90;;
15317;SDS011;7759;52.528;13.346;2023-04-15T02:00:21;15.83;;;10.00;;
15317;SDS011;7759;52.528;13.346;2023-04-15T02:02:47;16.70;;;9.17;;
15317;SDS011;7759;52.528;13.346;2023-04-15T02:05:13;15.60;;;10.00;;
15317;SDS011;7759;52.528;13.346;2023-04-15T02:07:40;17.47;;;10.20;;
15317;SDS011;7759;52.528;13.346;2023-04-15T02:10:06;17.80;;;9.03;;
15317;SDS011;7759;52.528;13.346;2023-04-15T02:12:33;20.37;;;10.33;;
15317;SDS011;7759;52.528;13.346;2023-04-15T02:14:59;17.93;;;9.67;;
15317;SDS011;7759;52.528;13.346;2023-04-15T02:17:25;16.40;;;9.87;;
15317;SDS011;7759;52.528;13.346;2023-04-15T02:19:51;15.03;;;9.03;;
15317;SDS011;7759;52.528;13.346;2023-04-15T02:22:16;13.40;;;8.57;;
15317;SDS011;7759;52.528;13.346;2023-04-15T02:24:43;14.90;;;9.17;;
15317;SDS011;7759;52.528;13.346;2023-04-15T02:27:10;17.07;;;9.53;;
15317;SDS011;7759;52.528;13.346;2023-04-15T02:29:36;15.57;;;9.53;;
15317;SDS011;7759;52.528;13.346;2023-04-15T02:32:02;16.00;;;9.73;;
15317;SDS011;7759;52.528;13.346;2023-04-15T02:34:28;16.57;;;9.97;;
15317;SDS011;7759;52.528;13.346;2023-04-15T02:36:55;16.30;;;8.80;;
15317;SDS011;7759;52.528;13.346;2023-04-15T02:39:21;15.40;;;9.50;;
15317;SDS011;7759;52.528;13.346;2023-04-15T02:41:48;15.80;;;9.63;;
15317;SDS011;7759;52.528;13.346;2023-04-15T02:44:17;19.23;;;10.83;;
15317;SDS011;7759;52.528;13.346;2023-04-15T02:46:44;18.27;;;10.57;;
15317;SDS011;7759;52.528;13.346;2023-04-15T02:49:14;15.20;;;9.57;;
15317;SDS011;7759;52.528;13.346;2023-04-15T02:51:40;18.37;;;9.47;;
15317;SDS011;7759;52.528;13.346;2023-04-15T02:54:06;15.30;;;8.83;;
15317;SDS011;7759;52.528;13.346;2023-04-15T02:56:32;17.80;;;10.77;;
15317;SDS011;7759;52.528;13.346;2023-04-15T02:58:58;19.27;;;10.60;;
15317;SDS011;7759;52.528;13.346;2023-04-15T03:01:24;17.13;;;9.80;;
15317;SDS011;7759;52.528;13.346;2023-04-15T03:03:51;17.53;;;9.83;;
15317;SDS011;7759;52.528;13.346;2023-04-15T03:06:17;20.50;;;10.03;;
15317;SDS011;7759;52.528;13.346;2023-04-15T03:08:42;16.83;;;9.97;;
15317;SDS011;7759;52.528;13.346;2023-04-15T03:11:09;15.30;;;8.77;;
15317;SDS011;7759;52.528;13.346;2023-04-15T03:13:35;16.73;;;9.27;;
15317;SDS011;7759;52.528;13.346;2023-04-15T03:16:01;14.83;;;8.97;;
15317;SDS011;7759;52.528;13.346;2023-04-15T03:18:26;23.33;;;11.67;;
15317;SDS011;7759;52.528;13.346;2023-04-15T03:20:53;19.57;;;10.90;;
15317;SDS011;7759;52.528;13.346;2023-04-15T03:23:19;18.63;;;10.37;;
15317;SDS011;7759;52.528;13.346;2023-04-15T03:25:45;15.97;;;10.07;;
15317;SDS011;7759;52.528;13.346;2023-04-15T03:28:11;20.77;;;10.33;;
15317;SDS011;7759;52.528;13.346;2023-04-15T03:30:37;15.77;;;8.47;;
15317;SDS011;7759;52.528;13.346;2023-04-15T03:33:02;17.80;;;10.60;;
15317;SDS011;7759;52.528;13.346;2023-04-15T03:35:28;17.87;;;9.53;;
15317;SDS011;7759;52.528;13.346;2023-04-15T03:37:54;17.17;;;9.77;;
15317;SDS011;7759;52.528;13.346;2023-04-15T03:40:21;14.13;;;8.70;;
15317;SDS011;7759;52.528;13.346;2023-04-15T03:42:46;16.33;;;10.17;;
15317;SDS011;7759;52.528;13.346;2023-04-15T03:45:12;16.93;;;9.30;;
15317;SDS011;7759;52.528;13.346;2023-04-15T03:47:38;17.87;;;10.03;;
15317;SDS011;7759;52.528;13.346;2023-04-15T03:50:04;16.50;;;8.87;;
15317;SDS011;7759;52.528;13.346;2023-04-15T03:52:31;16.47;;;8.77;;
15317;SDS011;7759;52.528;13.346;2023-04-15T03:54:57;14.00;;;8.97;;
15317;SDS011;7759;52.528;13.346;2023-04-15T03:57:22;15.63;;;8.63;;
15317;SDS011;7759;52.528;13.346;2023-04-15T03:59:48;16.80;;;9.43;;
15317;SDS011;7759;52.528;13.346;2023-04-15T04:02:14;18.97;;;10.23;;
15317;SDS011;7759;52.528;13.346;2023-04-15T04:04:41;15.60;;;9.07;;
15317;SDS011;7759;52.528;13.346;2023-04-15T04:07:07;12.80;;;8.33;;
15317;SDS011;7759;52.528;13.346;2023-04-15T04:09:33;12.93;;;8.20;;
15317;SDS011;7759;52.528;13.346;2023-04-15T04:12:00;16.10;;;9.73;;
15317;SDS011;7759;52.528;13.346;2023-04-15T04:14:26;28.70;;;12.73;;
15317;SDS011;7759;52.528;13.346;2023-04-15T04:16:53;20.43;;;8.70;;
15317;SDS011;7759;52.528;13.346;2023-04-15T04:19:20;13.67;;;8.43;;
15317;SDS011;7759;52.528;13.346;2023-04-15T04:21:46;18.93;;;10.10;;
15317;SDS011;7759;52.528;13.346;2023-04-15T04:24:12;16.73;;;9.87;;
15317;SDS011;7759;52.528;13.346;2023-04-15T04:26:38;17.43;;;9.67;;
15317;SDS011;7759;52.528;13.346;2023-04-15T04:29:04;17.07;;;10.93;;
15317;SDS011;7759;52.528;13.346;2023-04-15T04:31:30;12.60;;;8.20;;
15317;SDS011;7759;52.528;13.346;2023-04-15T04:33:56;15.73;;;9.37;;
15317;SDS011;7759;52.528;13.346;2023-04-15T04:36:22;13.80;;;8.80;;
15317;SDS011;7759;52.528;13.346;2023-04-15T04:38:47;17.30;;;10.00;;
15317;SDS011;7759;52.528;13.346;2023-04-15T04:41:13;13.07;;;8.00;;
15317;SDS011;7759;52.528;13.346;2023-04-15T04:43:39;14.60;;;8.73;;
15317;SDS011;7759;52.528;13.346;2023-04-15T04:46:05;13.60;;;8.63;;
15317;SDS011;7759;52.528;13.346;2023-04-15T04:48:31;13.33;;;7.13;;
15317;SDS011;7759;52.528;13.346;2023-04-15T04:50:57;12.13;;;7.97;;
15317;SDS011;7759;52.528;13.346;2023-04-15T04:53:23;12.27;;;8.40;;
15317;SDS011;7759;52.528;13.346;2023-04-15T04:55:49;15.60;;;9.60;;
15317;SDS011;7759;52.528;13.346;2023-04-15T04:58:15;13.40;;;7.83;;
15317;SDS011;7759;52.528;13.346;2023-04-15T05:00:41;11.60;;;7.73;;
15317;SDS011;7759;52.528;13.346;2023-04-15T05:03:07;12.90;;;8.53;;
15317;SDS011;7759;52.528;13.346;2023-04-15T05:05:33;12.90;;;8.27;;
15317;SDS011;7759;52.528;13.346;2023-04-15T05:08:00;15.33;;;8.90;;
15317;SDS011;7759;52.528;13.346;2023-04-15T05:10:26;14.63;;;8.47;;
15317;SDS011;7759;52.528;13.346;2023-04-15T05:12:52;11.23;;;7.43;;
15317;SDS011;7759;52.528;13.346;2023-04-15T05:15:18;11.30;;;8.07;;
15317;SDS011;7759;52.528;13.346;2023-04-15T05:17:44;13.13;;;7.73;;
15317;SDS011;7759;52.528;13.346;2023-04-15T05:20:10;16.87;;;10.40;;
15317;SDS011;7759;52.528;13.346;2023-04-15T05:22:36;17.43;;;9.00;;
15317;SDS011;7759;52.528;13.346;2023-04-15T05:25:02;12.87;;;8.07;;
15317;SDS011;7759;52.528;13.346;2023-04-15T05:27:28;16.07;;;8.00;;
15317;SDS011;7759;52.528;13.346;2023-04-15T05:29:54;13.33;;;7.60;;
15317;SDS011;7759;52.528;13.346;2023-04-15T05:32:20;11.33;;;7.10;;
15317;SDS011;7759;52.528;13.346;2023-04-15T05:34:46;13.13;;;8.37;;
15317;SDS011;7759;52.528;13.346;2023-04-15T05:37:12;13.97;;;7.93;;
15317;SDS011;7759;52.528;13.346;2023-04-15T05:39:38;10.47;;;6.93;;
15317;SDS011;7759;52.528;13.346;2023-04-15T05:42:04;12.93;;;8.93;;
15317;SDS011;7759;52.528;13.346;2023-04-15T05:44:30;14.03;;;8.40;;
15317;SDS011;7759;52.528;13.346;2023-04-15T05:46:56;13.83;;;8.57;;
15317;SDS011;7759;52.528;13.346;2023-04-15T05:49:22;10.47;;;7.17;;
15317;SDS011;7759;52.528;13.346;2023-04-15T05:51:48;11.33;;;7.57;;
15317;SDS011;7759;52.528;13.346;2023-04-15T05:54:14;12.87;;;8.27;;
15317;SDS011;7759;52.528;13.346;2023-04-15T05:56:41;11.23;;;6.73;;
15317;SDS011;7759;52.528;13.346;2023-04-15T05:59:07;16.20;;;9.77;;
15317;SDS011;7759;52.528;13.346;2023-04-15T06:01:33;12.93;;;7.43;;
15317;SDS011;7759;52.528;13.346;2023-04-15T06:03:59;10.23;;;7.10;;
15317;SDS011;7759;52.528;13.346;2023-04-15T06:06:25;9.77;;;6.93;;
15317;SDS011;7759;52.528;13.346;2023-04-15T06:08:51;13.10;;;9.00;;
15317;SDS011;7759;52.528;13.346;2023-04-15T06:11:19;11.30;;;7.80;;
15317;SDS011;7759;52.528;13.346;2023-04-15T06:13:46;16.67;;;8.57;;
15317;SDS011;7759;52.528;13.346;2023-04-15T06:16:11;13.60;;;7.77;;
15317;SDS011;7759;52.528;13.346;2023-04-15T06:18:38;11.00;;;7.70;;
15317;SDS011;7759;52.528;13.346;2023-04-15T06:21:04;11.53;;;7.37;;
15317;SDS011;7759;52.528;13.346;2023-04-15T06:23:30;10.30;;;7.17;;
15317;SDS011;7759;52.528;13.346;2023-04-15T06:25:56;12.70;;;7.43;;
15317;SDS011;7759;52.528;13.346;2023-04-15T06:28:21;10.23;;;7.10;;
15317;SDS011;7759;52.528;13.346;2023-04-15T06:30:47;9.37;;;6.90;;
15317;SDS011;7759;52.528;13.346;2023-04-15T06:33:13;10.27;;;6.80;;
15317;SDS011;7759;52.528;13.346;2023-04-15T06:35:40;10.50;;;7.03;;
15317;SDS011;7759;52.528;13.346;2023-04-15T06:38:05;11.23;;;8.00;;
15317;SDS011;7759;52.528;13.346;2023-04-15T06:40:31;9.60;;;6.27;;
15317;SDS011;7759;52.528;13.346;2023-04-15T06:42:57;10.40;;;7.60;;
15317;SDS011;7759;52.528;13.346;2023-04-15T06:45:23;10.20;;;6.53;;
15317;SDS011;7759;52.528;13.346;2023-04-15T06:47:49;9.57;;;6.43;;
15317;SDS011;7759;52.528;13.346;2023-04-15T06:50:15;10.43;;;6.73;;
15317;SDS011;7759;52.528;13.346;2023-04-15T06:52:41;10.57;;;6.13;;
15317;SDS011;7759;52.528;13.346;2023-04-15T06:55:07;11.50;;;6.73;;
15317;SDS011;7759;52.528;13.346;2023-04-15T06:57:33;9.97;;;6.63;;
15317;SDS011;7759;52.528;13.346;2023-04-15T06:59:59;9.73;;;6.43;;
15317;SDS011;7759;52.528;13.346;2023-04-15T07:02:25;10.90;;;7.07;;
15317;SDS011;7759;52.528;13.346;2023-04-15T07:04:51;8.83;;;5.97;;
15317;SDS011;7759;52.528;13.346;2023-04-15T07:07:18;8.27;;;5.57;;
15317;SDS011;7759;52.528;13.346;2023-04-15T07:09:44;11.57;;;7.30;;
15317;SDS011;7759;52.528;13.346;2023-04-15T07:12:10;7.63;;;5.73;;
15317;SDS011;7759;52.528;13.346;2023-04-15T07:14:36;10.30;;;6.23;;
15317;SDS011;7759;52.528;13.346;2023-04-15T07:17:02;10.80;;;6.40;;
15317;SDS011;7759;52.528;13.346;2023-04-15T07:19:28;9.33;;;5.33;;
15317;SDS011;7759;52.528;13.346;2023-04-15T07:21:53;8.40;;;6.17;;
15317;SDS011;7759;52.528;13.346;2023-04-15T07:24:19;9.70;;;6.30;;
15317;SDS011;7759;52.528;13.346;2023-04-15T07:26:47;11.20;;;7.00;;
15317;SDS011;7759;52.528;13.346;2023-04-15T07:29:13;12.87;;;7.23;;
15317;SDS011;7759;52.528;13.346;2023-04-15T07:31:39;14.27;;;7.47;;
15317;SDS011;7759;52.528;13.346;2023-04-15T07:34:06;10.83;;;6.40;;
15317;SDS011;7759;52.528;13.346;2023-04-15T07:36:32;9.90;;;6.17;;
15317;SDS011;7759;52.528;13.346;2023-04-15T07:38:58;6.50;;;5.63;;
15317;SDS011;7759;52.528;13.346;2023-04-15T07:41:25;9.57;;;5.87;;
15317;SDS011;7759;52.528;13.346;2023-04-15T07:43:52;8.10;;;6.20;;
15317;SDS011;7759;52.528;13.346;2023-04-15T07:46:17;6.63;;;5.07;;
15317;SDS011;7759;52.528;13.346;2023-04-15T07:48:43;8.10;;;6.10;;
15317;SDS011;7759;52.528;13.346;2023-04-15T07:51:10;9.00;;;6.23;;
15317;SDS011;7759;52.528;13.346;2023-04-15T07:53:36;12.50;;;8.17;;
15317;SDS011;7759;52.528;13.346;2023-04-15T07:56:02;8.17;;;5.80;;
15317;SDS011;7759;52.528;13.346;2023-04-15T07:58:28;7.87;;;6.03;;
15317;SDS011;7759;52.528;13.346;2023-04-15T08:00:55;13.93;;;8.30;;
15317;SDS011;7759;52.528;13.346;2023-04-15T08:03:21;11.53;;;8.10;;
15317;SDS011;7759;52.528;13.346;2023-04-15T08:05:47;12.10;;;7.87;;
15317;SDS011;7759;52.528;13.346;2023-04-15T08:08:13;8.00;;;5.60;;
15317;SDS011;7759;52.528;13.346;2023-04-15T08:10:39;9.93;;;6.33;;
15317;SDS011;7759;52.528;13.346;2023-04-15T08:13:05;9.47;;;6.47;;
15317;SDS011;7759;52.528;13.346;2023-04-15T08:15:32;9.13;;;6.50;;
15317;SDS011;7759;52.528;13.346;2023-04-15T08:17:58;10.73;;;7.63;;
15317;SDS011;7759;52.528;13.346;2023-04-15T08:20:27;11.50;;;7.43;;
15317;SDS011;7759;52.528;13.346;2023-04-15T08:22:53;10.83;;;7.47;;
15317;SDS011;7759;52.528;13.346;2023-04-15T08:25:18;11.27;;;7.10;;
15317;SDS011;7759;52.528;13.346;2023-04-15T08:27:45;9.00;;;5.93;;
15317;SDS011;7759;52.528;13.346;2023-04-15T08:30:11;8.40;;;6.40;;
15317;SDS011;7759;52.528;13.346;2023-04-15T08:32:37;10.93;;;7.20;;
15317;SDS011;7759;52.528;13.346;2023-04-15T08:35:03;7.93;;;6.20;;
15317;SDS011;7759;52.528;13.346;2023-04-15T08:37:29;8.67;;;5.93;;
15317;SDS011;7759;52.528;13.346;2023-04-15T08:39:55;10.37;;;6.83;;
15317;SDS011;7759;52.528;13.346;2023-04-15T08:42:29;7.83;;;5.77;;
15317;SDS011;7759;52.528;13.346;2023-04-15T08:44:57;9.20;;;6.50;;
15317;SDS011;7759;52.528;13.346;2023-04-15T08:47:25;9.00;;;6.30;;
15317;SDS011;7759;52.528;13.346;2023-04-15T08:49:53;12.87;;;6.63;;
15317;SDS011;7759;52.528;13.346;2023-04-15T08:52:20;8.73;;;6.57;;
15317;SDS011;7759;52.528;13.346;2023-04-15T08:54:46;8.43;;;6.10;;
15317;SDS011;7759;52.528;13.346;2023-04-15T08:57:12;9.33;;;6.87;;
15317;SDS011;7759;52.528;13.346;2023-04-15T08:59:39;14.47;;;6.70;;
15317;SDS011;7759;52.528;13.346;2023-04-15T09:02:06;10.33;;;7.60;;
15317;SDS011;7759;52.528;13.346;2023-04-15T09:04:33;8.50;;;6.03;;
15317;SDS011;7759;52.528;13.346;2023-04-15T09:06:59;9.20;;;6.53;;
15317;SDS011;7759;52.528;13.346;2023-04-15T09:09:25;10.53;;;6.70;;
15317;SDS011;7759;52.528;13.346;2023-04-15T09:11:51;9.13;;;6.33;;
15317;SDS011;7759;52.528;13.346;2023-04-15T09:14:17;10.77;;;6.83;;
15317;SDS011;7759;52.528;13.346;2023-04-15T09:16:59;8.97;;;6.53;;
15317;SDS011;7759;52.528;13.346;2023-04-15T09:19:25;10.43;;;6.33;;
15317;SDS011;7759;52.528;13.346;2023-04-15T09:21:55;9.60;;;6.83;;
15317;SDS011;7759;52.528;13.346;2023-04-15T09:24:21;10.77;;;7.00;;
15317;SDS011;7759;52.528;13.346;2023-04-15T09:26:47;10.87;;;7.50;;
15317;SDS011;7759;52.528;13.346;2023-04-15T09:29:16;8.60;;;6.53;;
15317;SDS011;7759;52.528;13.346;2023-04-15T09:31:42;10.10;;;7.13;;
15317;SDS011;7759;52.528;13.346;2023-04-15T09:34:08;11.77;;;7.27;;
15317;SDS011;7759;52.528;13.346;2023-04-15T09:36:40;8.60;;;6.47;;
15317;SDS011;7759;52.528;13.346;2023-04-15T09:39:16;8.60;;;6.20;;
15317;SDS011;7759;52.528;13.346;2023-04-15T09:41:42;9.70;;;7.17;;
15317;SDS011;7759;52.528;13.346;2023-04-15T09:44:22;9.93;;;7.23;;
15317;SDS011;7759;52.528;13.346;2023-04-15T09:46:48;10.33;;;7.20;;
15317;SDS011;7759;52.528;13.346;2023-04-15T09:49:14;7.43;;;6.27;;
15317;SDS011;7759;52.528;13.346;2023-04-15T09:51:41;11.97;;;6.60;;
15317;SDS011;7759;52.528;13.346;2023-04-15T09:54:08;9.67;;;6.80;;
15317;SDS011;7759;52.528;13.346;2023-04-15T09:56:34;10.37;;;7.27;;
15317;SDS011;7759;52.528;13.346;2023-04-15T09:59:07;6.67;;;5.30;;
15317;SDS011;7759;52.528;13.346;2023-04-15T10:01:33;8.23;;;5.07;;
15317;SDS011;7759;52.528;13.346;2023-04-15T10:04:01;8.77;;;6.17;;
15317;SDS011;7759;52.528;13.346;2023-04-15T10:06:28;8.47;;;6.27;;
15317;SDS011;7759;52.528;13.346;2023-04-15T10:08:54;8.73;;;6.50;;
15317;SDS011;7759;52.528;13.346;2023-04-15T10:11:20;8.17;;;5.90;;
15317;SDS011;7759;52.528;13.346;2023-04-15T10:13:48;8.57;;;6.37;;
15317;SDS011;7759;52.528;13.346;2023-04-15T10:16:14;8.50;;;6.13;;
15317;SDS011;7759;52.528;13.346;2023-04-15T10:18:44;8.83;;;5.50;;
15317;SDS011;7759;52.528;13.346;2023-04-15T10:21:10;9.10;;;6.37;;
15317;SDS011;7759;52.528;13.346;2023-04-15T10:23:38;8.57;;;6.60;;
15317;SDS011;7759;52.528;13.346;2023-04-15T10:26:04;10.57;;;7.17;;
15317;SDS011;7759;52.528;13.346;2023-04-15T10:28:30;12.67;;;7.73;;
15317;SDS011;7759;52.528;13.346;2023-04-15T10:30:56;10.57;;;7.57;;
15317;SDS011;7759;52.528;13.346;2023-04-15T10:33:23;10.07;;;7.60;;
15317;SDS011;7759;52.528;13.346;2023-04-15T10:35:49;9.93;;;6.33;;
15317;SDS011;7759;52.528;13.346;2023-04-15T10:38:30;9.53;;;6.43;;
15317;SDS011;7759;52.528;13.346;2023-04-15T10:41:12;9.47;;;5.93;;
15317;SDS011;7759;52.528;13.346;2023-04-15T10:43:39;10.50;;;7.20;;
15317;SDS011;7759;52.528;13.346;2023-04-15T10:46:05;9.80;;;7.43;;
15317;SDS011;7759;52.528;13.346;2023-04-15T10:48:31;9.13;;;6.87;;
15317;SDS011;7759;52.528;13.346;2023-04-15T10:50:59;9.60;;;6.23;;
15317;SDS011;7759;52.528;13.346;2023-04-15T10:53:29;11.37;;;7.27;;
15317;SDS011;7759;52.528;13.346;2023-04-15T10:55:56;9.20;;;6.43;;
15317;SDS011;7759;52.528;13.346;2023-04-15T10:58:23;9.20;;;6.33;;
15317;SDS011;7759;52.528;13.346;2023-04-15T11:00:50;8.47;;;5.10;;
15317;SDS011;7759;52.528;13.346;2023-04-15T11:03:30;12.90;;;8.23;;
15317;SDS011;7759;52.528;13.346;2023-04-15T11:05:58;8.60;;;7.20;;
15317;SDS011;7759;52.528;13.346;2023-04-15T11:11:10;9.37;;;5.87;;
15317;SDS011;7759;52.528;13.346;2023-04-15T11:13:36;8.57;;;6.80;;
15317;SDS011;7759;52.528;13.346;2023-04-15T11:16:12;8.73;;;6.57;;
15317;SDS011;7759;52.528;13.346;2023-04-15T11:18:38;6.80;;;5.37;;
15317;SDS011;7759;52.528;13.346;2023-04-15T11:21:05;10.83;;;6.63;;
15317;SDS011;7759;52.528;13.346;2023-04-15T11:23:36;9.43;;;7.17;;
15317;SDS011;7759;52.528;13.346;2023-04-15T11:26:03;8.57;;;5.83;;
15317;SDS011;7759;52.528;13.346;2023-04-15T11:28:31;8.10;;;5.70;;
15317;SDS011;7759;52.528;13.346;2023-04-15T11:30:57;9.50;;;5.27;;
15317;SDS011;7759;52.528;13.346;2023-04-15T11:33:23;9.13;;;6.47;;
15317;SDS011;7759;52.528;13.346;2023-04-15T11:35:51;10.53;;;5.37;;
15317;SDS011;7759;52.528;13.346;2023-04-15T11:38:18;5.87;;;4.27;;
15317;SDS011;7759;52.528;13.346;2023-04-15T11:40:44;7.33;;;5.13;;
15317;SDS011;7759;52.528;13.346;2023-04-15T11:45:36;7.33;;;5.80;;
15317;SDS011;7759;52.528;13.346;2023-04-15T11:50:31;8.30;;;5.80;;
15317;SDS011;7759;52.528;13.346;2023-04-15T11:52:58;8.90;;;6.00;;
15317;SDS011;7759;52.528;13.346;2023-04-15T11:55:28;10.80;;;7.67;;
15317;SDS011;7759;52.528;13.346;2023-04-15T11:58:13;9.47;;;6.33;;
15317;SDS011;7759;52.528;13.346;2023-04-15T12:00:41;9.50;;;5.67;;
15317;SDS011;7759;52.528;13.346;2023-04-15T12:03:45;9.10;;;5.87;;
15317;SDS011;7759;52.528;13.346;2023-04-15T12:11:18;8.63;;;5.90;;
15317;SDS011;7759;52.528;13.346;2023-04-15T12:13:47;8.17;;;6.37;;
15317;SDS011;7759;52.528;13.346;2023-04-15T12:16:17;8.13;;;5.47;;
15317;SDS011;7759;52.528;13.346;2023-04-15T12:18:46;8.13;;;5.90;;
15317;SDS011;7759;52.528;13.346;2023-04-15T12:21:13;9.77;;;6.60;;
15317;SDS011;7759;52.528;13.346;2023-04-15T12:23:46;7.50;;;5.53;;
15317;SDS011;7759;52.528;13.346;2023-04-15T12:26:13;7.10;;;4.70;;
15317;SDS011;7759;52.528;13.346;2023-04-15T12:28:39;8.00;;;5.50;;
15317;SDS011;7759;52.528;13.346;2023-04-15T12:31:09;7.37;;;5.53;;
15317;SDS011;7759;52.528;13.346;2023-04-15T12:33:36;8.60;;;5.80;;
15317;SDS011;7759;52.528;13.346;2023-04-15T12:36:02;7.17;;;5.57;;
15317;SDS011;7759;52.528;13.346;2023-04-15T12:38:28;8.03;;;5.80;;
15317;SDS011;7759;52.528;13.346;2023-04-15T12:40:55;7.13;;;5.13;;
15317;SDS011;7759;52.528;13.346;2023-04-15T12:43:21;6.53;;;5.10;;
15317;SDS011;7759;52.528;13.346;2023-04-15T12:45:47;8.13;;;5.57;;
15317;SDS011;7759;52.528;13.346;2023-04-15T12:48:13;6.67;;;5.10;;
15317;SDS011;7759;52.528;13.346;2023-04-15T12:50:39;10.17;;;5.37;;
15317;SDS011;7759;52.528;13.346;2023-04-15T12:53:04;7.17;;;5.33;;
15317;SDS011;7759;52.528;13.346;2023-04-15T12:55:31;7.80;;;5.07;;
15317;SDS011;7759;52.528;13.346;2023-04-15T12:57:56;9.53;;;6.17;;
15317;SDS011;7759;52.528;13.346;2023-04-15T13:00:22;7.00;;;5.40;;
15317;SDS011;7759;52.528;13.346;2023-04-15T13:02:48;7.47;;;5.30;;
15317;SDS011;7759;52.528;13.346;2023-04-15T13:05:14;6.97;;;5.33;;
15317;SDS011;7759;52.528;13.346;2023-04-15T13:07:41;7.57;;;5.70;;
15317;SDS011;7759;52.528;13.346;2023-04-15T13:10:07;6.53;;;5.13;;
15317;SDS011;7759;52.528;13.346;2023-04-15T13:12:33;7.20;;;5.40;;
15317;SDS011;7759;52.528;13.346;2023-04-15T13:15:01;8.33;;;5.13;;
15317;SDS011;7759;52.528;13.346;2023-04-15T13:17:27;7.97;;;5.37;;
15317;SDS011;7759;52.528;13.346;2023-04-15T13:19:52;6.73;;;4.17;;
15317;SDS011;7759;52.528;13.346;2023-04-15T13:22:18;6.23;;;5.00;;
15317;SDS011;7759;52.528;13.346;2023-04-15T13:24:44;6.87;;;5.00;;
15317;SDS011;7759;52.528;13.346;2023-04-15T13:27:10;7.57;;;5.20;;
15317;SDS011;7759;52.528;13.346;2023-04-15T13:29:36;7.23;;;5.07;;
15317;SDS011;7759;52.528;13.346;2023-04-15T13:32:04;8.20;;;5.03;;
15317;SDS011;7759;52.528;13.346;2023-04-15T13:34:30;7.00;;;5.37;;
15317;SDS011;7759;52.528;13.346;2023-04-15T13:36:56;7.10;;;4.83;;
15317;SDS011;7759;52.528;13.346;2023-04-15T13:39:22;8.17;;;5.90;;
15317;SDS011;7759;52.528;13.346;2023-04-15T13:41:48;7.37;;;5.77;;
15317;SDS011;7759;52.528;13.346;2023-04-15T13:44:13;6.23;;;4.97;;
15317;SDS011;7759;52.528;13.346;2023-04-15T13:46:39;7.97;;;5.57;;
15317;SDS011;7759;52.528;13.346;2023-04-15T13:49:06;6.47;;;4.83;;
15317;SDS011;7759;52.528;13.346;2023-04-15T13:51:32;7.40;;;5.17;;
15317;SDS011;7759;52.528;13.346;2023-04-15T13:54:00;6.60;;;4.63;;
15317;SDS011;7759;52.528;13.346;2023-04-15T13:56:26;6.83;;;4.40;;
15317;SDS011;7759;52.528;13.346;2023-04-15T13:58:53;5.00;;;4.03;;
15317;SDS011;7759;52.528;13.346;2023-04-15T14:01:22;4.40;;;3.93;;
15317;SDS011;7759;52.528;13.346;2023-04-15T14:03:48;6.87;;;4.90;;
15317;SDS011;7759;52.528;13.346;2023-04-15T14:06:15;7.00;;;5.10;;
15317;SDS011;7759;52.528;13.346;2023-04-15T14:08:40;8.97;;;5.37;;
15317;SDS011;7759;52.528;13.346;2023-04-15T14:11:06;6.97;;;4.33;;
15317;SDS011;7759;52.528;13.346;2023-04-15T14:13:32;5.30;;;4.40;;
15317;SDS011;7759;52.528;13.346;2023-04-15T14:15:58;6.83;;;4.63;;
15317;SDS011;7759;52.528;13.346;2023-04-15T14:18:24;7.80;;;4.73;;
15317;SDS011;7759;52.528;13.346;2023-04-15T14:20:50;6.40;;;5.00;;
15317;SDS011;7759;52.528;13.346;2023-04-15T14:23:16;6.67;;;4.57;;
15317;SDS011;7759;52.528;13.346;2023-04-15T14:25:42;5.40;;;3.97;;
15317;SDS011;7759;52.528;13.346;2023-04-15T14:28:08;5.87;;;4.40;;
15317;SDS011;7759;52.528;13.346;2023-04-15T14:30:34;6.80;;;4.80;;
15317;SDS011;7759;52.528;13.346;2023-04-15T14:33:00;6.80;;;5.27;;
15317;SDS011;7759;52.528;13.346;2023-04-15T14:35:26;5.93;;;4.80;;
15317;SDS011;7759;52.528;13.346;2023-04-15T14:37:52;7.73;;;4.57;;
15317;SDS011;7759;52.528;13.346;2023-04-15T14:40:19;7.13;;;5.07;;
15317;SDS011;7759;52.528;13.346;2023-04-15T14:42:45;10.43;;;6.47;;
15317;SDS011;7759;52.528;13.346;2023-04-15T14:45:11;6.40;;;3.90;;
15317;SDS011;7759;52.528;13.346;2023-04-15T14:47:37;6.70;;;5.00;;